sensor_id;sensor_type;location;lat;lon;timestamp;pressure;altitude;pressure_sealevel;temperature;humidity
62926;BME280;55732;52.248;-0.844;2022-08-20T00:00:34;100833.38;;;16.64;60.43
62926;BME280;55732;52.248;-0.844;2022-08-20T00:03:12;100833.43;;;16.60;60.70
62926;BME280;55732;52.248;-0.844;2022-08-20T00:06:17;100832.61;;;16.57;60.95
62926;BME280;55732;52.248;-0.844;2022-08-20T00:08:35;100833.73;;;16.54;60.84
62926;BME280;55732;52.248;-0.844;2022-08-20T00:11:02;100829.38;;;16.51;60.91
62926;BME280;55732;52.248;-0.844;2022-08-20T00:13:35;100833.19;;;16.47;61.11
62926;BME280;55732;52.248;-0.844;2022-08-20T00:16:02;100833.77;;;16.45;61.28
62926;BME280;55732;52.248;-0.844;2022-08-20T00:18:28;100832.89;;;16.43;61.53
62926;BME280;55732;52.248;-0.844;2022-08-20T00:20:55;100832.62;;;16.40;61.67
62926;BME280;55732;52.248;-0.844;2022-08-20T00:23:21;100829.66;;;16.37;61.63
62926;BME280;55732;52.248;-0.844;2022-08-20T00:25:48;100828.82;;;16.35;61.76
62926;BME280;55732;52.248;-0.844;2022-08-20T00:28:14;100829.57;;;16.33;61.71
62926;BME280;55732;52.248;-0.844;2022-08-20T00:30:42;100826.80;;;16.29;61.94
62926;BME280;55732;52.248;-0.844;2022-08-20T00:33:09;100824.58;;;16.26;62.08
62926;BME280;55732;52.248;-0.844;2022-08-20T00:35:39;100818.96;;;16.22;62.31
62926;BME280;55732;52.248;-0.844;2022-08-20T00:38:04;100821.15;;;16.19;62.37
62926;BME280;55732;52.248;-0.844;2022-08-20T00:40:42;100822.48;;;16.16;62.50
62926;BME280;55732;52.248;-0.844;2022-08-20T00:43:29;100824.69;;;16.12;62.66
62926;BME280;55732;52.248;-0.844;2022-08-20T00:46:01;100819.97;;;16.07;63.08
62926;BME280;55732;52.248;-0.844;2022-08-20T00:48:30;100818.24;;;16.05;62.94
62926;BME280;55732;52.248;-0.844;2022-08-20T00:51:11;100817.05;;;16.04;63.21
62926;BME280;55732;52.248;-0.844;2022-08-20T00:53:39;100815.83;;;16.03;63.35
62926;BME280;55732;52.248;-0.844;2022-08-20T00:56:07;100818.48;;;16.03;63.61
62926;BME280;55732;52.248;-0.844;2022-08-20T00:58:34;100816.50;;;16.04;63.76
62926;BME280;55732;52.248;-0.844;2022-08-20T01:01:01;100816.66;;;16.05;63.95
62926;BME280;55732;52.248;-0.844;2022-08-20T01:03:26;100812.41;;;16.05;63.99
62926;BME280;55732;52.248;-0.844;2022-08-20T01:05:52;100813.29;;;16.05;63.97
62926;BME280;55732;52.248;-0.844;2022-08-20T01:08:20;100810.30;;;16.03;64.10
62926;BME280;55732;52.248;-0.844;2022-08-20T01:10:48;100809.45;;;16.01;64.15
62926;BME280;55732;52.248;-0.844;2022-08-20T01:13:18;100809.69;;;15.98;64.24
62926;BME280;55732;52.248;-0.844;2022-08-20T01:15:47;100815.77;;;15.95;64.33
62926;BME280;55732;52.248;-0.844;2022-08-20T01:18:19;100820.84;;;15.91;64.47
62926;BME280;55732;52.248;-0.844;2022-08-20T01:20:51;100816.62;;;15.88;64.70
62926;BME280;55732;52.248;-0.844;2022-08-20T01:26:15;100820.79;;;15.83;64.90
62926;BME280;55732;52.248;-0.844;2022-08-20T01:28:55;100819.50;;;15.77;64.95
62926;BME280;55732;52.248;-0.844;2022-08-20T01:31:25;100819.36;;;15.74;65.21
62926;BME280;55732;52.248;-0.844;2022-08-20T01:33:53;100817.11;;;15.71;65.30
62926;BME280;55732;52.248;-0.844;2022-08-20T01:36:34;100829.06;;;15.69;65.30
62926;BME280;55732;52.248;-0.844;2022-08-20T01:39:00;100825.56;;;15.66;65.54
62926;BME280;55732;52.248;-0.844;2022-08-20T01:44:08;100830.03;;;15.65;66.01
62926;BME280;55732;52.248;-0.844;2022-08-20T01:46:38;100830.39;;;15.64;66.03
62926;BME280;55732;52.248;-0.844;2022-08-20T01:49:09;100830.39;;;15.64;66.12
62926;BME280;55732;52.248;-0.844;2022-08-20T01:51:35;100830.36;;;15.66;66.37
62926;BME280;55732;52.248;-0.844;2022-08-20T01:54:01;100828.41;;;15.66;66.37
62926;BME280;55732;52.248;-0.844;2022-08-20T01:56:30;100825.95;;;15.64;66.26
62926;BME280;55732;52.248;-0.844;2022-08-20T01:58:58;100823.48;;;15.64;66.47
62926;BME280;55732;52.248;-0.844;2022-08-20T02:01:34;100824.20;;;15.63;66.43
62926;BME280;55732;52.248;-0.844;2022-08-20T02:04:02;100821.56;;;15.61;66.65
62926;BME280;55732;52.248;-0.844;2022-08-20T02:06:33;100822.48;;;15.59;66.54
62926;BME280;55732;52.248;-0.844;2022-08-20T02:09:00;100815.27;;;15.57;66.83
62926;BME280;55732;52.248;-0.844;2022-08-20T02:11:28;100817.42;;;15.53;66.77
62926;BME280;55732;52.248;-0.844;2022-08-20T02:13:55;100816.95;;;15.49;67.02
62926;BME280;55732;52.248;-0.844;2022-08-20T02:16:23;100822.16;;;15.46;67.22
62926;BME280;55732;52.248;-0.844;2022-08-20T02:18:52;100817.31;;;15.39;67.34
62926;BME280;55732;52.248;-0.844;2022-08-20T02:21:20;100815.98;;;15.33;67.33
62926;BME280;55732;52.248;-0.844;2022-08-20T02:23:47;100817.54;;;15.26;67.61
62926;BME280;55732;52.248;-0.844;2022-08-20T02:26:13;100817.99;;;15.20;67.85
62926;BME280;55732;52.248;-0.844;2022-08-20T02:28:39;100817.33;;;15.17;67.78
62926;BME280;55732;52.248;-0.844;2022-08-20T02:31:05;100818.94;;;15.16;67.93
62926;BME280;55732;52.248;-0.844;2022-08-20T02:33:33;100817.93;;;15.12;67.91
62926;BME280;55732;52.248;-0.844;2022-08-20T02:35:59;100819.19;;;15.11;68.27
62926;BME280;55732;52.248;-0.844;2022-08-20T02:38:25;100813.55;;;15.10;68.23
62926;BME280;55732;52.248;-0.844;2022-08-20T02:40:50;100808.08;;;15.08;68.38
62926;BME280;55732;52.248;-0.844;2022-08-20T02:43:16;100803.48;;;15.07;68.45
62926;BME280;55732;52.248;-0.844;2022-08-20T02:45:44;100803.70;;;15.03;68.36
62926;BME280;55732;52.248;-0.844;2022-08-20T02:48:15;100808.23;;;14.97;68.52
62926;BME280;55732;52.248;-0.844;2022-08-20T02:50:47;100809.95;;;14.91;68.50
62926;BME280;55732;52.248;-0.844;2022-08-20T02:53:14;100814.30;;;14.85;68.83
62926;BME280;55732;52.248;-0.844;2022-08-20T02:55:40;100814.89;;;14.80;69.03
62926;BME280;55732;52.248;-0.844;2022-08-20T02:58:06;100810.89;;;14.75;69.16
62926;BME280;55732;52.248;-0.844;2022-08-20T03:00:32;100809.53;;;14.71;69.33
62926;BME280;55732;52.248;-0.844;2022-08-20T03:02:58;100804.95;;;14.69;69.41
62926;BME280;55732;52.248;-0.844;2022-08-20T03:05:25;100802.14;;;14.66;69.44
62926;BME280;55732;52.248;-0.844;2022-08-20T03:07:52;100803.77;;;14.65;69.40
62926;BME280;55732;52.248;-0.844;2022-08-20T03:10:29;100802.20;;;14.63;69.73
62926;BME280;55732;52.248;-0.844;2022-08-20T03:12:56;100806.25;;;14.64;70.12
62926;BME280;55732;52.248;-0.844;2022-08-20T03:15:23;100808.58;;;14.63;70.04
62926;BME280;55732;52.248;-0.844;2022-08-20T03:17:49;100811.75;;;14.64;70.16
62926;BME280;55732;52.248;-0.844;2022-08-20T03:20:15;100809.09;;;14.64;70.15
62926;BME280;55732;52.248;-0.844;2022-08-20T03:22:40;100802.75;;;14.63;70.48
62926;BME280;55732;52.248;-0.844;2022-08-20T03:25:07;100806.14;;;14.61;70.22
62926;BME280;55732;52.248;-0.844;2022-08-20T03:27:33;100805.46;;;14.59;70.59
62926;BME280;55732;52.248;-0.844;2022-08-20T03:29:58;100798.56;;;14.57;70.58
62926;BME280;55732;52.248;-0.844;2022-08-20T03:32:24;100801.08;;;14.54;70.59
62926;BME280;55732;52.248;-0.844;2022-08-20T03:34:49;100803.81;;;14.50;70.66
62926;BME280;55732;52.248;-0.844;2022-08-20T03:37:15;100805.80;;;14.48;70.77
62926;BME280;55732;52.248;-0.844;2022-08-20T03:39:40;100801.21;;;14.45;70.93
62926;BME280;55732;52.248;-0.844;2022-08-20T03:42:06;100799.99;;;14.43;70.96
62926;BME280;55732;52.248;-0.844;2022-08-20T03:44:31;100802.48;;;14.42;71.00
62926;BME280;55732;52.248;-0.844;2022-08-20T03:46:57;100799.48;;;14.41;71.04
62926;BME280;55732;52.248;-0.844;2022-08-20T03:49:23;100793.32;;;14.39;71.15
62926;BME280;55732;52.248;-0.844;2022-08-20T03:51:49;100795.27;;;14.38;71.32
62926;BME280;55732;52.248;-0.844;2022-08-20T03:54:15;100794.91;;;14.38;71.20
62926;BME280;55732;52.248;-0.844;2022-08-20T03:56:41;100791.20;;;14.36;71.35
62926;BME280;55732;52.248;-0.844;2022-08-20T03:59:06;100789.98;;;14.35;71.47
62926;BME280;55732;52.248;-0.844;2022-08-20T04:01:32;100784.52;;;14.32;71.34
62926;BME280;55732;52.248;-0.844;2022-08-20T04:03:59;100784.56;;;14.29;71.73
62926;BME280;55732;52.248;-0.844;2022-08-20T04:06:25;100787.63;;;14.27;71.90
62926;BME280;55732;52.248;-0.844;2022-08-20T04:08:54;100789.77;;;14.24;71.87
62926;BME280;55732;52.248;-0.844;2022-08-20T04:11:19;100795.63;;;14.23;71.89
62926;BME280;55732;52.248;-0.844;2022-08-20T04:13:45;100797.61;;;14.20;71.87
62926;BME280;55732;52.248;-0.844;2022-08-20T04:16:10;100798.34;;;14.18;72.03
62926;BME280;55732;52.248;-0.844;2022-08-20T04:18:36;100796.21;;;14.18;72.32
62926;BME280;55732;52.248;-0.844;2022-08-20T04:21:02;100795.35;;;14.16;72.17
62926;BME280;55732;52.248;-0.844;2022-08-20T04:23:28;100796.79;;;14.15;72.15
62926;BME280;55732;52.248;-0.844;2022-08-20T04:25:55;100798.23;;;14.14;72.30
62926;BME280;55732;52.248;-0.844;2022-08-20T04:28:22;100795.95;;;14.12;72.60
62926;BME280;55732;52.248;-0.844;2022-08-20T04:30:54;100800.39;;;14.10;72.64
62926;BME280;55732;52.248;-0.844;2022-08-20T04:33:21;100801.47;;;14.08;72.63
62926;BME280;55732;52.248;-0.844;2022-08-20T04:35:48;100806.45;;;14.06;72.62
62926;BME280;55732;52.248;-0.844;2022-08-20T04:38:16;100809.16;;;14.03;73.04
62926;BME280;55732;52.248;-0.844;2022-08-20T04:40:41;100809.38;;;14.00;72.93
62926;BME280;55732;52.248;-0.844;2022-08-20T04:43:28;100810.80;;;13.98;73.07
62926;BME280;55732;52.248;-0.844;2022-08-20T04:45:56;100813.13;;;13.95;73.61
62926;BME280;55732;52.248;-0.844;2022-08-20T04:48:24;100817.40;;;13.93;73.55
62926;BME280;55732;52.248;-0.844;2022-08-20T04:50:51;100820.06;;;13.93;73.39
62926;BME280;55732;52.248;-0.844;2022-08-20T04:53:20;100818.13;;;13.93;73.93
62926;BME280;55732;52.248;-0.844;2022-08-20T04:55:46;100828.39;;;13.93;74.09
62926;BME280;55732;52.248;-0.844;2022-08-20T04:58:18;100831.55;;;13.95;74.22
62926;BME280;55732;52.248;-0.844;2022-08-20T05:00:47;100827.84;;;13.94;74.17
62926;BME280;55732;52.248;-0.844;2022-08-20T05:03:13;100825.00;;;13.94;74.51
62926;BME280;55732;52.248;-0.844;2022-08-20T05:05:39;100821.10;;;13.95;74.74
62926;BME280;55732;52.248;-0.844;2022-08-20T05:08:05;100822.31;;;13.98;74.63
62926;BME280;55732;52.248;-0.844;2022-08-20T05:10:31;100819.64;;;14.00;74.72
62926;BME280;55732;52.248;-0.844;2022-08-20T05:12:56;100811.64;;;14.03;74.92
62926;BME280;55732;52.248;-0.844;2022-08-20T05:15:22;100817.06;;;14.07;75.04
62926;BME280;55732;52.248;-0.844;2022-08-20T05:17:54;100814.17;;;14.13;75.00
62926;BME280;55732;52.248;-0.844;2022-08-20T05:20:19;100814.09;;;14.20;75.00
62926;BME280;55732;52.248;-0.844;2022-08-20T05:22:45;100817.55;;;14.26;75.09
62926;BME280;55732;52.248;-0.844;2022-08-20T05:25:11;100815.70;;;14.33;75.15
62926;BME280;55732;52.248;-0.844;2022-08-20T05:27:36;100816.48;;;14.42;74.92
62926;BME280;55732;52.248;-0.844;2022-08-20T05:30:08;100816.61;;;14.59;74.87
62926;BME280;55732;52.248;-0.844;2022-08-20T05:32:34;100815.52;;;14.85;74.45
62926;BME280;55732;52.248;-0.844;2022-08-20T05:35:05;100820.76;;;15.13;73.94
62926;BME280;55732;52.248;-0.844;2022-08-20T05:37:36;100818.65;;;15.44;73.35
62926;BME280;55732;52.248;-0.844;2022-08-20T05:40:11;100823.02;;;15.79;72.56
62926;BME280;55732;52.248;-0.844;2022-08-20T05:42:39;100827.27;;;15.98;72.14
62926;BME280;55732;52.248;-0.844;2022-08-20T05:45:05;100829.80;;;16.39;71.40
62926;BME280;55732;52.248;-0.844;2022-08-20T05:47:32;100822.51;;;17.39;69.65
62926;BME280;55732;52.248;-0.844;2022-08-20T05:49:57;100826.33;;;18.53;67.12
62926;BME280;55732;52.248;-0.844;2022-08-20T05:52:23;100827.54;;;19.01;65.83
62926;BME280;55732;52.248;-0.844;2022-08-20T05:54:48;100824.50;;;19.07;65.46
62926;BME280;55732;52.248;-0.844;2022-08-20T05:57:17;100825.70;;;19.19;64.48
62926;BME280;55732;52.248;-0.844;2022-08-20T05:59:44;100821.88;;;19.32;63.93
62926;BME280;55732;52.248;-0.844;2022-08-20T06:02:10;100822.28;;;19.41;63.52
62926;BME280;55732;52.248;-0.844;2022-08-20T06:04:55;100824.59;;;19.53;62.81
62926;BME280;55732;52.248;-0.844;2022-08-20T06:07:21;100825.77;;;19.33;62.97
62926;BME280;55732;52.248;-0.844;2022-08-20T06:09:47;100831.91;;;19.15;63.39
62926;BME280;55732;52.248;-0.844;2022-08-20T06:12:13;100834.80;;;18.92;63.73
62926;BME280;55732;52.248;-0.844;2022-08-20T06:14:38;100832.98;;;18.76;64.01
62926;BME280;55732;52.248;-0.844;2022-08-20T06:17:06;100839.58;;;18.57;64.24
62926;BME280;55732;52.248;-0.844;2022-08-20T06:19:34;100839.37;;;18.40;64.80
62926;BME280;55732;52.248;-0.844;2022-08-20T06:22:01;100834.77;;;18.27;64.84
62926;BME280;55732;52.248;-0.844;2022-08-20T06:24:26;100835.31;;;18.20;65.12
62926;BME280;55732;52.248;-0.844;2022-08-20T06:26:59;100844.37;;;18.16;65.18
62926;BME280;55732;52.248;-0.844;2022-08-20T06:29:26;100836.73;;;18.08;65.57
62926;BME280;55732;52.248;-0.844;2022-08-20T06:31:52;100846.55;;;18.14;65.60
62926;BME280;55732;52.248;-0.844;2022-08-20T06:34:17;100847.09;;;18.20;65.63
62926;BME280;55732;52.248;-0.844;2022-08-20T06:36:44;100845.48;;;18.27;65.74
62926;BME280;55732;52.248;-0.844;2022-08-20T06:39:13;100843.84;;;18.33;65.78
62926;BME280;55732;52.248;-0.844;2022-08-20T06:41:39;100839.41;;;18.39;65.70
62926;BME280;55732;52.248;-0.844;2022-08-20T06:44:05;100834.46;;;18.43;65.51
62926;BME280;55732;52.248;-0.844;2022-08-20T06:46:36;100834.08;;;18.44;65.55
62926;BME280;55732;52.248;-0.844;2022-08-20T06:49:04;100835.05;;;18.48;65.48
62926;BME280;55732;52.248;-0.844;2022-08-20T06:51:30;100835.73;;;18.55;65.19
62926;BME280;55732;52.248;-0.844;2022-08-20T06:53:57;100840.55;;;18.62;65.19
62926;BME280;55732;52.248;-0.844;2022-08-20T06:56:22;100836.73;;;18.64;64.99
62926;BME280;55732;52.248;-0.844;2022-08-20T06:58:48;100840.27;;;18.64;65.03
62926;BME280;55732;52.248;-0.844;2022-08-20T07:01:14;100843.35;;;18.69;65.20
62926;BME280;55732;52.248;-0.844;2022-08-20T07:03:47;100840.99;;;18.75;64.94
62926;BME280;55732;52.248;-0.844;2022-08-20T07:06:14;100840.55;;;18.79;64.73
62926;BME280;55732;52.248;-0.844;2022-08-20T07:08:41;100838.04;;;18.79;64.73
62926;BME280;55732;52.248;-0.844;2022-08-20T07:11:07;100836.33;;;18.88;65.01
62926;BME280;55732;52.248;-0.844;2022-08-20T07:13:32;100833.14;;;18.99;64.36
62926;BME280;55732;52.248;-0.844;2022-08-20T07:16:01;100838.12;;;19.10;64.23
62926;BME280;55732;52.248;-0.844;2022-08-20T07:18:27;100839.24;;;19.25;64.10
62926;BME280;55732;52.248;-0.844;2022-08-20T07:20:52;100843.27;;;19.54;63.35
62926;BME280;55732;52.248;-0.844;2022-08-20T07:23:19;100851.42;;;20.22;62.02
62926;BME280;55732;52.248;-0.844;2022-08-20T07:25:44;100848.34;;;20.33;61.46
62926;BME280;55732;52.248;-0.844;2022-08-20T07:28:16;100854.10;;;20.32;61.48
62926;BME280;55732;52.248;-0.844;2022-08-20T07:30:42;100852.07;;;20.34;61.13
62926;BME280;55732;52.248;-0.844;2022-08-20T07:33:28;100853.36;;;20.39;60.96
62926;BME280;55732;52.248;-0.844;2022-08-20T07:35:59;100853.23;;;20.46;60.76
62926;BME280;55732;52.248;-0.844;2022-08-20T07:38:27;100848.96;;;20.82;60.11
62926;BME280;55732;52.248;-0.844;2022-08-20T07:40:59;100848.48;;;21.52;58.90
62926;BME280;55732;52.248;-0.844;2022-08-20T07:43:26;100842.42;;;21.89;58.14
62926;BME280;55732;52.248;-0.844;2022-08-20T07:45:53;100839.34;;;21.94;57.75
62926;BME280;55732;52.248;-0.844;2022-08-20T07:48:25;100840.57;;;22.07;57.33
62926;BME280;55732;52.248;-0.844;2022-08-20T07:50:54;100838.47;;;22.06;57.33
62926;BME280;55732;52.248;-0.844;2022-08-20T07:53:20;100838.11;;;22.33;56.88
62926;BME280;55732;52.248;-0.844;2022-08-20T07:55:45;100836.77;;;24.12;53.91
62926;BME280;55732;52.248;-0.844;2022-08-20T07:58:13;100831.51;;;25.24;51.89
62926;BME280;55732;52.248;-0.844;2022-08-20T08:00:40;100830.83;;;26.42;49.66
62926;BME280;55732;52.248;-0.844;2022-08-20T08:03:06;100829.59;;;27.89;47.24
62926;BME280;55732;52.248;-0.844;2022-08-20T08:05:34;100827.87;;;30.15;43.32
62926;BME280;55732;52.248;-0.844;2022-08-20T08:08:00;100825.92;;;31.94;40.33
62926;BME280;55732;52.248;-0.844;2022-08-20T08:10:27;100823.73;;;33.79;37.69
62926;BME280;55732;52.248;-0.844;2022-08-20T08:12:56;100822.41;;;34.17;36.26
62926;BME280;55732;52.248;-0.844;2022-08-20T08:15:29;100826.23;;;35.98;33.33
62926;BME280;55732;52.248;-0.844;2022-08-20T08:18:04;100828.23;;;37.40;31.04
62926;BME280;55732;52.248;-0.844;2022-08-20T08:20:36;100831.33;;;38.71;29.04
62926;BME280;55732;52.248;-0.844;2022-08-20T08:23:05;100834.42;;;39.97;27.53
62926;BME280;55732;52.248;-0.844;2022-08-20T08:25:32;100835.34;;;40.89;26.68
62926;BME280;55732;52.248;-0.844;2022-08-20T08:27:57;100836.48;;;41.47;24.99
62926;BME280;55732;52.248;-0.844;2022-08-20T08:30:25;100835.00;;;42.01;23.97
62926;BME280;55732;52.248;-0.844;2022-08-20T08:32:52;100834.73;;;41.92;24.38
62926;BME280;55732;52.248;-0.844;2022-08-20T08:35:38;100839.61;;;41.48;23.70
62926;BME280;55732;52.248;-0.844;2022-08-20T08:38:03;100839.03;;;41.83;22.94
62926;BME280;55732;52.248;-0.844;2022-08-20T08:40:30;100839.83;;;40.85;23.92
62926;BME280;55732;52.248;-0.844;2022-08-20T08:43:00;100835.65;;;38.54;25.27
62926;BME280;55732;52.248;-0.844;2022-08-20T08:45:33;100838.77;;;37.84;25.94
62926;BME280;55732;52.248;-0.844;2022-08-20T08:48:02;100836.12;;;38.54;25.47
62926;BME280;55732;52.248;-0.844;2022-08-20T08:50:31;100834.50;;;38.08;25.49
62926;BME280;55732;52.248;-0.844;2022-08-20T08:52:59;100835.91;;;37.22;26.34
62926;BME280;55732;52.248;-0.844;2022-08-20T08:55:26;100830.41;;;37.73;25.70
62926;BME280;55732;52.248;-0.844;2022-08-20T08:57:55;100831.76;;;38.75;24.83
62926;BME280;55732;52.248;-0.844;2022-08-20T09:00:21;100830.52;;;39.80;23.98
62926;BME280;55732;52.248;-0.844;2022-08-20T09:03:03;100830.59;;;39.92;23.70
62926;BME280;55732;52.248;-0.844;2022-08-20T09:05:51;100828.55;;;39.69;23.57
62926;BME280;55732;52.248;-0.844;2022-08-20T09:08:24;100822.83;;;40.01;23.20
62926;BME280;55732;52.248;-0.844;2022-08-20T09:10:50;100825.53;;;40.64;22.36
62926;BME280;55732;52.248;-0.844;2022-08-20T09:13:16;100816.52;;;41.48;21.82
62926;BME280;55732;52.248;-0.844;2022-08-20T09:15:41;100816.02;;;41.27;21.82
62926;BME280;55732;52.248;-0.844;2022-08-20T09:18:06;100817.27;;;39.60;23.22
62926;BME280;55732;52.248;-0.844;2022-08-20T09:20:33;100816.00;;;38.53;23.94
62926;BME280;55732;52.248;-0.844;2022-08-20T09:22:59;100813.97;;;38.18;24.29
62926;BME280;55732;52.248;-0.844;2022-08-20T09:25:24;100811.80;;;37.44;24.89
62926;BME280;55732;52.248;-0.844;2022-08-20T09:27:50;100805.05;;;37.76;24.41
62926;BME280;55732;52.248;-0.844;2022-08-20T09:30:16;100802.98;;;38.65;23.90
62926;BME280;55732;52.248;-0.844;2022-08-20T09:32:43;100796.97;;;39.55;23.22
62926;BME280;55732;52.248;-0.844;2022-08-20T09:35:10;100796.45;;;39.92;22.42
62926;BME280;55732;52.248;-0.844;2022-08-20T09:37:36;100792.02;;;40.19;22.50
62926;BME280;55732;52.248;-0.844;2022-08-20T09:40:03;100789.05;;;40.61;21.92
62926;BME280;55732;52.248;-0.844;2022-08-20T09:42:32;100780.88;;;39.96;22.36
62926;BME280;55732;52.248;-0.844;2022-08-20T09:44:58;100780.91;;;40.43;21.89
62926;BME280;55732;52.248;-0.844;2022-08-20T09:47:25;100775.52;;;40.74;21.63
62926;BME280;55732;52.248;-0.844;2022-08-20T09:49:52;100775.45;;;40.32;21.92
62926;BME280;55732;52.248;-0.844;2022-08-20T09:52:30;100765.16;;;39.60;22.21
62926;BME280;55732;52.248;-0.844;2022-08-20T09:55:01;100765.67;;;40.17;21.91
62926;BME280;55732;52.248;-0.844;2022-08-20T09:57:29;100768.83;;;40.12;21.58
62926;BME280;55732;52.248;-0.844;2022-08-20T10:00:00;100759.92;;;39.36;21.95
62926;BME280;55732;52.248;-0.844;2022-08-20T10:02:26;100760.38;;;39.79;21.89
62926;BME280;55732;52.248;-0.844;2022-08-20T10:04:52;100761.70;;;40.21;21.53
62926;BME280;55732;52.248;-0.844;2022-08-20T10:07:17;100762.33;;;40.51;21.00
62926;BME280;55732;52.248;-0.844;2022-08-20T10:09:43;100755.66;;;40.13;21.36
62926;BME280;55732;52.248;-0.844;2022-08-20T10:12:08;100753.66;;;40.07;21.53
62926;BME280;55732;52.248;-0.844;2022-08-20T10:14:34;100745.81;;;39.13;22.09
62926;BME280;55732;52.248;-0.844;2022-08-20T10:17:01;100743.75;;;38.21;22.84
62926;BME280;55732;52.248;-0.844;2022-08-20T10:19:28;100747.69;;;37.16;23.71
62926;BME280;55732;52.248;-0.844;2022-08-20T10:21:56;100744.33;;;35.43;25.14
62926;BME280;55732;52.248;-0.844;2022-08-20T10:24:22;100748.44;;;33.79;26.84
62926;BME280;55732;52.248;-0.844;2022-08-20T10:26:47;100749.89;;;32.42;28.44
62926;BME280;55732;52.248;-0.844;2022-08-20T10:29:13;100751.50;;;32.08;29.07
62926;BME280;55732;52.248;-0.844;2022-08-20T10:31:39;100750.62;;;31.76;29.85
62926;BME280;55732;52.248;-0.844;2022-08-20T10:34:05;100740.19;;;30.73;30.90
62926;BME280;55732;52.248;-0.844;2022-08-20T10:36:31;100747.84;;;29.87;31.92
62926;BME280;55732;52.248;-0.844;2022-08-20T10:38:56;100746.11;;;29.42;32.67
62926;BME280;55732;52.248;-0.844;2022-08-20T10:41:22;100746.06;;;29.54;32.63
62926;BME280;55732;52.248;-0.844;2022-08-20T10:43:47;100751.04;;;28.77;33.78
62926;BME280;55732;52.248;-0.844;2022-08-20T10:46:13;100750.27;;;28.03;34.77
62926;BME280;55732;52.248;-0.844;2022-08-20T10:48:39;100742.83;;;27.46;35.62
62926;BME280;55732;52.248;-0.844;2022-08-20T10:51:05;100741.52;;;27.02;36.37
62926;BME280;55732;52.248;-0.844;2022-08-20T10:53:31;100748.80;;;26.55;37.06
62926;BME280;55732;52.248;-0.844;2022-08-20T10:55:56;100744.06;;;26.21;37.92
62926;BME280;55732;52.248;-0.844;2022-08-20T10:58:23;100741.36;;;26.01;38.26
62926;BME280;55732;52.248;-0.844;2022-08-20T11:00:49;100737.77;;;25.81;38.92
62926;BME280;55732;52.248;-0.844;2022-08-20T11:03:15;100732.33;;;25.70;39.36
62926;BME280;55732;52.248;-0.844;2022-08-20T11:05:40;100733.36;;;25.74;39.23
62926;BME280;55732;52.248;-0.844;2022-08-20T11:08:06;100727.48;;;25.84;39.00
62926;BME280;55732;52.248;-0.844;2022-08-20T11:10:33;100725.02;;;25.95;39.40
62926;BME280;55732;52.248;-0.844;2022-08-20T11:13:00;100730.63;;;26.03;39.46
62926;BME280;55732;52.248;-0.844;2022-08-20T11:15:26;100728.64;;;26.08;39.27
62926;BME280;55732;52.248;-0.844;2022-08-20T11:17:52;100720.55;;;26.22;39.17
62926;BME280;55732;52.248;-0.844;2022-08-20T11:20:22;100716.94;;;26.31;39.20
62926;BME280;55732;52.248;-0.844;2022-08-20T11:22:50;100715.30;;;26.42;39.36
62926;BME280;55732;52.248;-0.844;2022-08-20T11:25:16;100726.65;;;26.56;39.26
62926;BME280;55732;52.248;-0.844;2022-08-20T11:27:44;100724.45;;;26.46;39.38
62926;BME280;55732;52.248;-0.844;2022-08-20T11:30:13;100723.42;;;26.50;39.42
62926;BME280;55732;52.248;-0.844;2022-08-20T11:32:39;100721.80;;;26.75;39.85
62926;BME280;55732;52.248;-0.844;2022-08-20T11:35:05;100717.45;;;26.92;39.45
62926;BME280;55732;52.248;-0.844;2022-08-20T11:37:31;100722.13;;;26.98;39.43
62926;BME280;55732;52.248;-0.844;2022-08-20T11:39:57;100718.47;;;27.01;39.56
62926;BME280;55732;52.248;-0.844;2022-08-20T11:42:22;100720.90;;;27.18;39.27
62926;BME280;55732;52.248;-0.844;2022-08-20T11:44:48;100721.14;;;27.07;38.96
62926;BME280;55732;52.248;-0.844;2022-08-20T11:47:25;100720.20;;;26.97;39.24
62926;BME280;55732;52.248;-0.844;2022-08-20T11:50:05;100722.77;;;26.90;39.64
62926;BME280;55732;52.248;-0.844;2022-08-20T11:52:31;100727.52;;;26.65;39.48
62926;BME280;55732;52.248;-0.844;2022-08-20T11:54:57;100732.81;;;26.45;40.02
62926;BME280;55732;52.248;-0.844;2022-08-20T11:57:28;100733.29;;;26.40;40.14
62926;BME280;55732;52.248;-0.844;2022-08-20T11:59:56;100732.09;;;26.37;40.41
62926;BME280;55732;52.248;-0.844;2022-08-20T12:02:23;100730.40;;;26.23;40.24
62926;BME280;55732;52.248;-0.844;2022-08-20T12:04:49;100736.14;;;26.07;40.54
62926;BME280;55732;52.248;-0.844;2022-08-20T12:07:18;100733.56;;;25.93;40.63
62926;BME280;55732;52.248;-0.844;2022-08-20T12:09:44;100734.79;;;25.71;41.12
62926;BME280;55732;52.248;-0.844;2022-08-20T12:12:11;100741.96;;;25.38;41.75
62926;BME280;55732;52.248;-0.844;2022-08-20T12:14:36;100753.77;;;25.07;42.65
62926;BME280;55732;52.248;-0.844;2022-08-20T12:17:10;100758.37;;;24.70;43.96
62926;BME280;55732;52.248;-0.844;2022-08-20T12:19:40;100767.77;;;24.38;44.70
62926;BME280;55732;52.248;-0.844;2022-08-20T12:22:07;100772.70;;;24.13;45.10
62926;BME280;55732;52.248;-0.844;2022-08-20T12:24:33;100769.68;;;23.96;45.87
62926;BME280;55732;52.248;-0.844;2022-08-20T12:27:16;100768.63;;;23.83;46.32
62926;BME280;55732;52.248;-0.844;2022-08-20T12:29:43;100774.10;;;23.77;46.29
62926;BME280;55732;52.248;-0.844;2022-08-20T12:32:10;100768.70;;;23.74;46.62
62926;BME280;55732;52.248;-0.844;2022-08-20T12:34:37;100762.07;;;23.84;46.86
62926;BME280;55732;52.248;-0.844;2022-08-20T12:37:07;100765.43;;;23.95;45.94
62926;BME280;55732;52.248;-0.844;2022-08-20T12:39:33;100759.92;;;23.97;45.87
62926;BME280;55732;52.248;-0.844;2022-08-20T12:42:00;100757.37;;;24.01;46.21
62926;BME280;55732;52.248;-0.844;2022-08-20T12:44:29;100755.02;;;24.08;46.31
62926;BME280;55732;52.248;-0.844;2022-08-20T12:49:30;100743.92;;;24.33;46.14
62926;BME280;55732;52.248;-0.844;2022-08-20T12:51:55;100734.09;;;24.76;45.76